sensor_id;sensor_type;location;lat;lon;timestamp;P1;durP1;ratioP1;P2;durP2;ratioP2
49784;SDS011;35679;38.732;-121.358;2024-03-08T00:01:32;4.18;;;3.97;;
49784;SDS011;35679;38.732;-121.358;2024-03-08T00:04:22;4.60;;;4.40;;
49784;SDS011;35679;38.732;-121.358;2024-03-08T00:07:13;3.80;;;3.70;;
49784;SDS011;35679;38.732;-121.358;2024-03-08T00:10:03;4.15;;;3.85;;
49784;SDS011;35679;38.732;-121.358;2024-03-08T00:12:54;3.70;;;3.60;;
49784;SDS011;35679;38.732;-121.358;2024-03-08T00:15:44;3.20;;;3.10;;
49784;SDS011;35679;38.732;-121.358;2024-03-08T00:18:34;3.50;;;3.20;;
49784;SDS011;35679;38.732;-121.358;2024-03-08T00:21:24;3.00;;;2.90;;
49784;SDS011;35679;38.732;-121.358;2024-03-08T00:24:15;3.03;;;2.92;;
49784;SDS011;35679;38.732;-121.358;2024-03-08T00:27:05;3.10;;;3.00;;
49784;SDS011;35679;38.732;-121.358;2024-03-08T00:29:55;2.92;;;2.83;;
49784;SDS011;35679;38.732;-121.358;2024-03-08T00:32:44;3.30;;;3.20;;
49784;SDS011;35679;38.732;-121.358;2024-03-08T00:35:34;3.28;;;3.17;;
49784;SDS011;35679;38.732;-121.358;2024-03-08T00:38:24;3.20;;;3.10;;
49784;SDS011;35679;38.732;-121.358;2024-03-08T00:41:13;3.10;;;3.00;;
49784;SDS011;35679;38.732;-121.358;2024-03-08T00:44:03;3.00;;;2.90;;
49784;SDS011;35679;38.732;-121.358;2024-03-08T00:46:53;2.92;;;2.83;;
49784;SDS011;35679;38.732;-121.358;2024-03-08T00:49:43;3.20;;;3.10;;
49784;SDS011;35679;38.732;-121.358;2024-03-08T00:52:33;3.33;;;3.22;;
49784;SDS011;35679;38.732;-121.358;2024-03-08T00:55:23;3.40;;;3.30;;
49784;SDS011;35679;38.732;-121.358;2024-03-08T00:58:13;3.22;;;3.13;;
49784;SDS011;35679;38.732;-121.358;2024-03-08T01:01:03;3.05;;;2.95;;
49784;SDS011;35679;38.732;-121.358;2024-03-08T01:03:53;3.20;;;3.10;;
49784;SDS011;35679;38.732;-121.358;2024-03-08T01:06:43;3.03;;;2.92;;
49784;SDS011;35679;38.732;-121.358;2024-03-08T01:09:36;4.00;;;3.90;;
49784;SDS011;35679;38.732;-121.358;2024-03-08T01:12:26;3.50;;;3.40;;
49784;SDS011;35679;38.732;-121.358;2024-03-08T01:15:16;4.00;;;3.80;;
49784;SDS011;35679;38.732;-121.358;2024-03-08T01:18:05;3.58;;;3.47;;
49784;SDS011;35679;38.732;-121.358;2024-03-08T01:20:55;3.50;;;3.30;;
49784;SDS011;35679;38.732;-121.358;2024-03-08T01:23:45;3.92;;;3.72;;
49784;SDS011;35679;38.732;-121.358;2024-03-08T01:26:36;5.90;;;5.70;;
49784;SDS011;35679;38.732;-121.358;2024-03-08T01:29:26;7.20;;;6.90;;
49784;SDS011;35679;38.732;-121.358;2024-03-08T01:32:16;6.90;;;6.60;;
49784;SDS011;35679;38.732;-121.358;2024-03-08T01:35:08;7.32;;;7.03;;
49784;SDS011;35679;38.732;-121.358;2024-03-08T01:37:58;5.90;;;5.70;;
49784;SDS011;35679;38.732;-121.358;2024-03-08T01:40:47;6.80;;;6.50;;
49784;SDS011;35679;38.732;-121.358;2024-03-08T01:43:38;4.45;;;4.25;;
49784;SDS011;35679;38.732;-121.358;2024-03-08T01:46:27;3.70;;;3.60;;
49784;SDS011;35679;38.732;-121.358;2024-03-08T01:49:19;3.97;;;3.88;;
49784;SDS011;35679;38.732;-121.358;2024-03-08T01:52:10;4.83;;;4.63;;
49784;SDS011;35679;38.732;-121.358;2024-03-08T01:55:00;4.90;;;4.70;;
49784;SDS011;35679;38.732;-121.358;2024-03-08T01:57:52;5.53;;;5.32;;
49784;SDS011;35679;38.732;-121.358;2024-03-08T02:00:43;5.93;;;5.63;;
49784;SDS011;35679;38.732;-121.358;2024-03-08T02:03:35;5.68;;;5.47;;
49784;SDS011;35679;38.732;-121.358;2024-03-08T02:06:25;6.50;;;6.20;;
49784;SDS011;35679;38.732;-121.358;2024-03-08T02:09:14;7.18;;;6.88;;
49784;SDS011;35679;38.732;-121.358;2024-03-08T02:12:06;8.57;;;8.18;;
49784;SDS011;35679;38.732;-121.358;2024-03-08T02:14:59;11.13;;;10.63;;
49784;SDS011;35679;38.732;-121.358;2024-03-08T02:17:48;10.38;;;9.98;;
49784;SDS011;35679;38.732;-121.358;2024-03-08T02:20:38;7.65;;;7.35;;
49784;SDS011;35679;38.732;-121.358;2024-03-08T02:23:28;5.57;;;5.25;;
49784;SDS011;35679;38.732;-121.358;2024-03-08T02:26:18;5.65;;;5.45;;
49784;SDS011;35679;38.732;-121.358;2024-03-08T02:29:07;5.97;;;5.78;;
49784;SDS011;35679;38.732;-121.358;2024-03-08T02:31:57;5.85;;;5.55;;
49784;SDS011;35679;38.732;-121.358;2024-03-08T02:34:47;5.88;;;5.50;;
49784;SDS011;35679;38.732;-121.358;2024-03-08T02:37:36;5.30;;;5.10;;
49784;SDS011;35679;38.732;-121.358;2024-03-08T02:40:27;5.30;;;5.10;;
49784;SDS011;35679;38.732;-121.358;2024-03-08T02:43:17;4.40;;;4.20;;
49784;SDS011;35679;38.732;-121.358;2024-03-08T02:46:07;4.30;;;4.20;;
49784;SDS011;35679;38.732;-121.358;2024-03-08T02:48:57;4.30;;;4.10;;
49784;SDS011;35679;38.732;-121.358;2024-03-08T02:51:46;4.70;;;4.50;;
49784;SDS011;35679;38.732;-121.358;2024-03-08T02:54:36;5.20;;;4.97;;
49784;SDS011;35679;38.732;-121.358;2024-03-08T02:57:26;4.35;;;4.25;;
49784;SDS011;35679;38.732;-121.358;2024-03-08T03:00:16;4.57;;;4.38;;
49784;SDS011;35679;38.732;-121.358;2024-03-08T03:03:07;4.78;;;4.57;;
49784;SDS011;35679;38.732;-121.358;2024-03-08T03:05:57;4.55;;;4.35;;
49784;SDS011;35679;38.732;-121.358;2024-03-08T03:08:46;4.38;;;4.18;;
49784;SDS011;35679;38.732;-121.358;2024-03-08T03:11:37;4.50;;;4.20;;
49784;SDS011;35679;38.732;-121.358;2024-03-08T03:14:27;4.07;;;3.90;;
49784;SDS011;35679;38.732;-121.358;2024-03-08T03:17:16;3.90;;;3.80;;
49784;SDS011;35679;38.732;-121.358;2024-03-08T03:20:06;4.70;;;4.50;;
49784;SDS011;35679;38.732;-121.358;2024-03-08T03:23:01;5.20;;;4.95;;
49784;SDS011;35679;38.732;-121.358;2024-03-08T03:25:51;4.70;;;4.50;;
49784;SDS011;35679;38.732;-121.358;2024-03-08T03:28:41;4.47;;;4.28;;
49784;SDS011;35679;38.732;-121.358;2024-03-08T03:31:31;4.80;;;4.60;;
49784;SDS011;35679;38.732;-121.358;2024-03-08T03:34:21;3.78;;;3.67;;
49784;SDS011;35679;38.732;-121.358;2024-03-08T03:37:11;5.00;;;4.80;;
49784;SDS011;35679;38.732;-121.358;2024-03-08T03:40:03;4.80;;;4.60;;
49784;SDS011;35679;38.732;-121.358;2024-03-08T03:42:53;4.93;;;4.72;;
49784;SDS011;35679;38.732;-121.358;2024-03-08T03:45:43;5.10;;;4.90;;
49784;SDS011;35679;38.732;-121.358;2024-03-08T03:48:32;4.93;;;4.70;;
49784;SDS011;35679;38.732;-121.358;2024-03-08T03:51:22;5.00;;;4.70;;
49784;SDS011;35679;38.732;-121.358;2024-03-08T03:54:11;5.10;;;4.90;;
49784;SDS011;35679;38.732;-121.358;2024-03-08T03:57:01;5.00;;;4.80;;
49784;SDS011;35679;38.732;-121.358;2024-03-08T03:59:51;5.10;;;4.90;;
49784;SDS011;35679;38.732;-121.358;2024-03-08T04:02:41;5.00;;;4.80;;
49784;SDS011;35679;38.732;-121.358;2024-03-08T04:05:31;5.38;;;5.18;;
49784;SDS011;35679;38.732;-121.358;2024-03-08T04:08:20;5.07;;;4.88;;
49784;SDS011;35679;38.732;-121.358;2024-03-08T04:11:09;4.93;;;4.72;;
49784;SDS011;35679;38.732;-121.358;2024-03-08T04:13:59;4.80;;;4.60;;
49784;SDS011;35679;38.732;-121.358;2024-03-08T04:16:48;4.85;;;4.65;;
49784;SDS011;35679;38.732;-121.358;2024-03-08T04:19:38;4.80;;;4.60;;
49784;SDS011;35679;38.732;-121.358;2024-03-08T04:22:28;5.07;;;4.85;;
49784;SDS011;35679;38.732;-121.358;2024-03-08T04:25:17;4.75;;;4.55;;
49784;SDS011;35679;38.732;-121.358;2024-03-08T04:28:08;4.38;;;4.18;;
49784;SDS011;35679;38.732;-121.358;2024-03-08T04:31:01;4.30;;;4.10;;
49784;SDS011;35679;38.732;-121.358;2024-03-08T04:33:50;4.60;;;4.40;;
49784;SDS011;35679;38.732;-121.358;2024-03-08T04:36:40;4.53;;;4.32;;
49784;SDS011;35679;38.732;-121.358;2024-03-08T04:39:29;3.78;;;3.58;;
49784;SDS011;35679;38.732;-121.358;2024-03-08T04:42:19;7.50;;;7.00;;
49784;SDS011;35679;38.732;-121.358;2024-03-08T04:45:09;10.23;;;9.70;;
49784;SDS011;35679;38.732;-121.358;2024-03-08T04:48:06;9.60;;;9.10;;
49784;SDS011;35679;38.732;-121.358;2024-03-08T04:50:57;8.80;;;8.40;;
49784;SDS011;35679;38.732;-121.358;2024-03-08T04:53:46;10.98;;;10.38;;
49784;SDS011;35679;38.732;-121.358;2024-03-08T04:56:36;10.70;;;10.05;;
49784;SDS011;35679;38.732;-121.358;2024-03-08T04:59:26;10.00;;;9.40;;
49784;SDS011;35679;38.732;-121.358;2024-03-08T05:02:16;9.23;;;8.63;;
49784;SDS011;35679;38.732;-121.358;2024-03-08T05:05:06;9.35;;;8.85;;
49784;SDS011;35679;38.732;-121.358;2024-03-08T05:07:56;8.20;;;7.70;;
49784;SDS011;35679;38.732;-121.358;2024-03-08T05:10:46;7.10;;;6.60;;
49784;SDS011;35679;38.732;-121.358;2024-03-08T05:13:35;6.93;;;6.53;;
49784;SDS011;35679;38.732;-121.358;2024-03-08T05:16:26;11.35;;;10.68;;
49784;SDS011;35679;38.732;-121.358;2024-03-08T05:19:18;10.73;;;10.23;;
49784;SDS011;35679;38.732;-121.358;2024-03-08T05:22:09;11.10;;;10.50;;
49784;SDS011;35679;38.732;-121.358;2024-03-08T05:25:00;11.50;;;10.90;;
49784;SDS011;35679;38.732;-121.358;2024-03-08T05:27:50;11.95;;;11.35;;
49784;SDS011;35679;38.732;-121.358;2024-03-08T05:30:39;11.32;;;10.70;;
49784;SDS011;35679;38.732;-121.358;2024-03-08T05:33:28;10.57;;;10.07;;
49784;SDS011;35679;38.732;-121.358;2024-03-08T05:36:18;11.07;;;10.52;;
49784;SDS011;35679;38.732;-121.358;2024-03-08T05:39:08;14.82;;;14.13;;
49784;SDS011;35679;38.732;-121.358;2024-03-08T05:42:00;10.30;;;9.70;;
49784;SDS011;35679;38.732;-121.358;2024-03-08T05:44:50;10.00;;;9.40;;
49784;SDS011;35679;38.732;-121.358;2024-03-08T05:47:39;7.18;;;6.78;;
49784;SDS011;35679;38.732;-121.358;2024-03-08T05:50:29;7.80;;;7.40;;
49784;SDS011;35679;38.732;-121.358;2024-03-08T05:53:19;7.60;;;7.20;;
49784;SDS011;35679;38.732;-121.358;2024-03-08T05:56:09;7.22;;;6.75;;
49784;SDS011;35679;38.732;-121.358;2024-03-08T05:58:58;7.20;;;6.80;;
49784;SDS011;35679;38.732;-121.358;2024-03-08T06:01:48;7.63;;;7.22;;
49784;SDS011;35679;38.732;-121.358;2024-03-08T06:04:38;7.50;;;7.10;;
49784;SDS011;35679;38.732;-121.358;2024-03-08T06:07:27;6.00;;;5.70;;
49784;SDS011;35679;38.732;-121.358;2024-03-08T06:10:16;6.25;;;5.85;;
49784;SDS011;35679;38.732;-121.358;2024-03-08T06:13:06;6.72;;;6.32;;
49784;SDS011;35679;38.732;-121.358;2024-03-08T06:15:56;7.15;;;6.75;;
49784;SDS011;35679;38.732;-121.358;2024-03-08T06:18:45;6.90;;;6.60;;
49784;SDS011;35679;38.732;-121.358;2024-03-08T06:21:35;6.95;;;6.65;;
49784;SDS011;35679;38.732;-121.358;2024-03-08T06:24:25;7.82;;;7.40;;
49784;SDS011;35679;38.732;-121.358;2024-03-08T06:27:14;5.72;;;5.32;;
49784;SDS011;35679;38.732;-121.358;2024-03-08T06:30:04;5.90;;;5.60;;
49784;SDS011;35679;38.732;-121.358;2024-03-08T06:32:53;6.07;;;5.68;;
49784;SDS011;35679;38.732;-121.358;2024-03-08T06:35:43;6.25;;;5.85;;
49784;SDS011;35679;38.732;-121.358;2024-03-08T06:38:33;8.35;;;7.85;;
49784;SDS011;35679;38.732;-121.358;2024-03-08T06:41:23;6.88;;;6.50;;
49784;SDS011;35679;38.732;-121.358;2024-03-08T06:44:12;6.82;;;6.43;;
49784;SDS011;35679;38.732;-121.358;2024-03-08T06:47:01;5.90;;;5.60;;
49784;SDS011;35679;38.732;-121.358;2024-03-08T06:49:51;5.82;;;5.53;;
49784;SDS011;35679;38.732;-121.358;2024-03-08T06:52:41;6.63;;;6.22;;
49784;SDS011;35679;38.732;-121.358;2024-03-08T06:55:36;6.80;;;6.40;;
49784;SDS011;35679;38.732;-121.358;2024-03-08T06:58:25;8.50;;;8.10;;
49784;SDS011;35679;38.732;-121.358;2024-03-08T07:01:16;6.30;;;6.00;;
49784;SDS011;35679;38.732;-121.358;2024-03-08T07:04:06;5.38;;;5.07;;
49784;SDS011;35679;38.732;-121.358;2024-03-08T07:06:55;5.30;;;5.00;;
49784;SDS011;35679;38.732;-121.358;2024-03-08T07:09:46;12.43;;;11.82;;
49784;SDS011;35679;38.732;-121.358;2024-03-08T07:12:37;6.90;;;6.50;;
49784;SDS011;35679;38.732;-121.358;2024-03-08T07:15:27;6.20;;;5.80;;
49784;SDS011;35679;38.732;-121.358;2024-03-08T07:18:17;6.88;;;6.43;;
49784;SDS011;35679;38.732;-121.358;2024-03-08T07:21:06;6.93;;;6.45;;
49784;SDS011;35679;38.732;-121.358;2024-03-08T07:23:56;3.72;;;3.53;;
49784;SDS011;35679;38.732;-121.358;2024-03-08T07:26:49;3.83;;;3.63;;
49784;SDS011;35679;38.732;-121.358;2024-03-08T07:29:40;4.13;;;3.83;;
49784;SDS011;35679;38.732;-121.358;2024-03-08T07:32:30;4.20;;;3.90;;
49784;SDS011;35679;38.732;-121.358;2024-03-08T07:35:20;3.80;;;3.60;;
49784;SDS011;35679;38.732;-121.358;2024-03-08T07:38:10;4.00;;;3.80;;
49784;SDS011;35679;38.732;-121.358;2024-03-08T07:41:00;3.90;;;3.70;;
49784;SDS011;35679;38.732;-121.358;2024-03-08T07:43:52;3.80;;;3.60;;
49784;SDS011;35679;38.732;-121.358;2024-03-08T07:46:41;3.90;;;3.70;;
49784;SDS011;35679;38.732;-121.358;2024-03-08T07:49:31;4.07;;;3.80;;
49784;SDS011;35679;38.732;-121.358;2024-03-08T07:52:20;4.25;;;3.95;;
49784;SDS011;35679;38.732;-121.358;2024-03-08T07:55:10;3.70;;;3.50;;
49784;SDS011;35679;38.732;-121.358;2024-03-08T07:58:01;3.90;;;3.70;;
49784;SDS011;35679;38.732;-121.358;2024-03-08T08:00:51;4.03;;;3.83;;
49784;SDS011;35679;38.732;-121.358;2024-03-08T08:03:40;4.15;;;3.95;;
49784;SDS011;35679;38.732;-121.358;2024-03-08T08:06:30;4.40;;;4.00;;
49784;SDS011;35679;38.732;-121.358;2024-03-08T08:09:23;3.97;;;3.75;;
49784;SDS011;35679;38.732;-121.358;2024-03-08T08:12:23;3.72;;;3.53;;
49784;SDS011;35679;38.732;-121.358;2024-03-08T08:15:12;3.60;;;3.40;;
49784;SDS011;35679;38.732;-121.358;2024-03-08T08:18:03;4.03;;;3.83;;
49784;SDS011;35679;38.732;-121.358;2024-03-08T08:20:55;4.03;;;3.83;;
49784;SDS011;35679;38.732;-121.358;2024-03-08T08:23:44;4.22;;;4.03;;
49784;SDS011;35679;38.732;-121.358;2024-03-08T08:26:35;3.95;;;3.70;;
49784;SDS011;35679;38.732;-121.358;2024-03-08T08:29:27;3.83;;;3.63;;
49784;SDS011;35679;38.732;-121.358;2024-03-08T08:32:16;3.75;;;3.50;;
49784;SDS011;35679;38.732;-121.358;2024-03-08T08:35:07;4.20;;;3.90;;
49784;SDS011;35679;38.732;-121.358;2024-03-08T08:37:58;3.90;;;3.70;;
49784;SDS011;35679;38.732;-121.358;2024-03-08T08:40:47;4.30;;;4.00;;
49784;SDS011;35679;38.732;-121.358;2024-03-08T08:43:38;4.20;;;3.90;;
49784;SDS011;35679;38.732;-121.358;2024-03-08T08:46:45;4.03;;;3.72;;
49784;SDS011;35679;38.732;-121.358;2024-03-08T08:49:34;4.22;;;3.95;;
49784;SDS011;35679;38.732;-121.358;2024-03-08T08:52:24;4.10;;;3.80;;
49784;SDS011;35679;38.732;-121.358;2024-03-08T08:55:14;4.30;;;4.10;;
49784;SDS011;35679;38.732;-121.358;2024-03-08T08:58:03;4.22;;;3.95;;
49784;SDS011;35679;38.732;-121.358;2024-03-08T09:00:53;4.38;;;4.03;;
49784;SDS011;35679;38.732;-121.358;2024-03-08T09:03:42;4.00;;;3.80;;
49784;SDS011;35679;38.732;-121.358;2024-03-08T09:06:35;4.00;;;3.77;;
49784;SDS011;35679;38.732;-121.358;2024-03-08T09:09:24;4.20;;;3.90;;
49784;SDS011;35679;38.732;-121.358;2024-03-08T09:12:14;4.10;;;3.90;;
49784;SDS011;35679;38.732;-121.358;2024-03-08T09:15:03;4.40;;;4.10;;
49784;SDS011;35679;38.732;-121.358;2024-03-08T09:17:55;4.43;;;4.13;;
49784;SDS011;35679;38.732;-121.358;2024-03-08T09:20:44;4.00;;;3.80;;
49784;SDS011;35679;38.732;-121.358;2024-03-08T09:23:34;4.00;;;3.80;;
49784;SDS011;35679;38.732;-121.358;2024-03-08T09:26:24;3.65;;;3.45;;
49784;SDS011;35679;38.732;-121.358;2024-03-08T09:29:16;4.78;;;4.47;;
49784;SDS011;35679;38.732;-121.358;2024-03-08T09:32:06;4.00;;;3.70;;
49784;SDS011;35679;38.732;-121.358;2024-03-08T09:34:55;3.83;;;3.60;;
49784;SDS011;35679;38.732;-121.358;2024-03-08T09:37:45;4.30;;;4.00;;
49784;SDS011;35679;38.732;-121.358;2024-03-08T09:40:43;4.50;;;4.10;;
49784;SDS011;35679;38.732;-121.358;2024-03-08T09:43:32;4.20;;;3.90;;
49784;SDS011;35679;38.732;-121.358;2024-03-08T09:46:22;4.32;;;4.00;;
49784;SDS011;35679;38.732;-121.358;2024-03-08T09:49:12;3.97;;;3.70;;
49784;SDS011;35679;38.732;-121.358;2024-03-08T09:52:02;4.00;;;3.80;;
49784;SDS011;35679;38.732;-121.358;2024-03-08T09:54:53;4.47;;;4.13;;
49784;SDS011;35679;38.732;-121.358;2024-03-08T09:57:43;3.75;;;3.50;;
49784;SDS011;35679;38.732;-121.358;2024-03-08T10:00:56;4.13;;;3.85;;
49784;SDS011;35679;38.732;-121.358;2024-03-08T10:03:46;4.20;;;3.80;;
49784;SDS011;35679;38.732;-121.358;2024-03-08T10:06:37;3.97;;;3.67;;
49784;SDS011;35679;38.732;-121.358;2024-03-08T10:09:27;4.30;;;4.00;;
49784;SDS011;35679;38.732;-121.358;2024-03-08T10:12:16;4.05;;;3.85;;
49784;SDS011;35679;38.732;-121.358;2024-03-08T10:15:08;3.88;;;3.67;;
49784;SDS011;35679;38.732;-121.358;2024-03-08T10:17:57;3.90;;;3.70;;
49784;SDS011;35679;38.732;-121.358;2024-03-08T10:20:51;3.80;;;3.50;;
49784;SDS011;35679;38.732;-121.358;2024-03-08T10:23:52;4.03;;;3.72;;
49784;SDS011;35679;38.732;-121.358;2024-03-08T10:26:42;3.75;;;3.55;;
49784;SDS011;35679;38.732;-121.358;2024-03-08T10:29:32;4.30;;;4.00;;
49784;SDS011;35679;38.732;-121.358;2024-03-08T10:32:22;4.25;;;3.95;;
49784;SDS011;35679;38.732;-121.358;2024-03-08T10:35:12;3.90;;;3.70;;
49784;SDS011;35679;38.732;-121.358;2024-03-08T10:38:03;4.22;;;4.03;;
49784;SDS011;35679;38.732;-121.358;2024-03-08T10:40:58;3.80;;;3.60;;
49784;SDS011;35679;38.732;-121.358;2024-03-08T10:43:57;4.13;;;3.83;;
49784;SDS011;35679;38.732;-121.358;2024-03-08T10:47:01;4.10;;;3.90;;
49784;SDS011;35679;38.732;-121.358;2024-03-08T10:52:56;3.80;;;3.60;;
49784;SDS011;35679;38.732;-121.358;2024-03-08T10:55:49;4.03;;;3.72;;
49784;SDS011;35679;38.732;-121.358;2024-03-08T10:58:42;3.80;;;3.60;;
49784;SDS011;35679;38.732;-121.358;2024-03-08T11:01:33;3.88;;;3.67;;
49784;SDS011;35679;38.732;-121.358;2024-03-08T11:04:23;3.83;;;3.63;;
49784;SDS011;35679;38.732;-121.358;2024-03-08T11:07:13;4.07;;;3.78;;
49784;SDS011;35679;38.732;-121.358;2024-03-08T11:10:06;3.95;;;3.65;;
49784;SDS011;35679;38.732;-121.358;2024-03-08T11:13:23;4.00;;;3.70;;
49784;SDS011;35679;38.732;-121.358;2024-03-08T11:22:12;3.80;;;3.55;;
49784;SDS011;35679;38.732;-121.358;2024-03-08T11:25:32;3.80;;;3.50;;
49784;SDS011;35679;38.732;-121.358;2024-03-08T11:28:34;3.50;;;3.30;;
49784;SDS011;35679;38.732;-121.358;2024-03-08T11:31:24;3.78;;;3.58;;
49784;SDS011;35679;38.732;-121.358;2024-03-08T11:34:19;4.00;;;3.72;;
49784;SDS011;35679;38.732;-121.358;2024-03-08T11:37:17;3.78;;;3.58;;
49784;SDS011;35679;38.732;-121.358;2024-03-08T11:40:11;4.03;;;3.75;;
49784;SDS011;35679;38.732;-121.358;2024-03-08T11:43:04;4.10;;;3.80;;
49784;SDS011;35679;38.732;-121.358;2024-03-08T11:46:07;3.85;;;3.55;;
49784;SDS011;35679;38.732;-121.358;2024-03-08T11:48:57;3.90;;;3.65;;
49784;SDS011;35679;38.732;-121.358;2024-03-08T11:51:47;3.90;;;3.60;;
49784;SDS011;35679;38.732;-121.358;2024-03-08T11:54:41;3.60;;;3.40;;
49784;SDS011;35679;38.732;-121.358;2024-03-08T11:57:34;3.63;;;3.42;;
49784;SDS011;35679;38.732;-121.358;2024-03-08T12:00:25;3.97;;;3.78;;
49784;SDS011;35679;38.732;-121.358;2024-03-08T12:03:19;4.22;;;3.92;;
49784;SDS011;35679;38.732;-121.358;2024-03-08T12:06:09;3.67;;;3.47;;
49784;SDS011;35679;38.732;-121.358;2024-03-08T12:08:59;4.10;;;3.80;;
49784;SDS011;35679;38.732;-121.358;2024-03-08T12:11:48;3.58;;;3.38;;
49784;SDS011;35679;38.732;-121.358;2024-03-08T12:14:42;3.90;;;3.60;;
49784;SDS011;35679;38.732;-121.358;2024-03-08T12:17:33;3.88;;;3.67;;
49784;SDS011;35679;38.732;-121.358;2024-03-08T12:20:24;3.60;;;3.40;;
49784;SDS011;35679;38.732;-121.358;2024-03-08T12:23:15;3.67;;;3.45;;
49784;SDS011;35679;38.732;-121.358;2024-03-08T12:26:12;3.85;;;3.58;;
49784;SDS011;35679;38.732;-121.358;2024-03-08T12:29:18;3.90;;;3.67;;
49784;SDS011;35679;38.732;-121.358;2024-03-08T12:32:10;3.90;;;3.60;;
49784;SDS011;35679;38.732;-121.358;2024-03-08T12:35:00;3.55;;;3.35;;
49784;SDS011;35679;38.732;-121.358;2024-03-08T12:37:54;3.88;;;3.60;;
49784;SDS011;35679;38.732;-121.358;2024-03-08T12:40:47;3.58;;;3.38;;
49784;SDS011;35679;38.732;-121.358;2024-03-08T12:43:36;3.53;;;3.33;;
49784;SDS011;35679;38.732;-121.358;2024-03-08T12:46:26;3.85;;;3.60;;
49784;SDS011;35679;38.732;-121.358;2024-03-08T12:49:15;3.30;;;3.20;;
49784;SDS011;35679;38.732;-121.358;2024-03-08T12:52:10;3.45;;;3.25;;
49784;SDS011;35679;38.732;-121.358;2024-03-08T12:55:00;3.40;;;3.10;;
49784;SDS011;35679;38.732;-121.358;2024-03-08T12:57:55;4.10;;;3.80;;
49784;SDS011;35679;38.732;-121.358;2024-03-08T13:00:44;3.83;;;3.63;;
49784;SDS011;35679;38.732;-121.358;2024-03-08T13:03:36;3.90;;;3.60;;
49784;SDS011;35679;38.732;-121.358;2024-03-08T13:06:26;3.60;;;3.40;;
49784;SDS011;35679;38.732;-121.358;2024-03-08T13:09:17;3.53;;;3.33;;
49784;SDS011;35679;38.732;-121.358;2024-03-08T13:12:08;3.42;;;3.22;;
49784;SDS011;35679;38.732;-121.358;2024-03-08T13:14:57;4.05;;;3.75;;
49784;SDS011;35679;38.732;-121.358;2024-03-08T13:17:47;3.50;;;3.30;;
49784;SDS011;35679;38.732;-121.358;2024-03-08T13:20:37;3.45;;;3.25;;
49784;SDS011;35679;38.732;-121.358;2024-03-08T13:23:34;3.40;;;3.20;;
49784;SDS011;35679;38.732;-121.358;2024-03-08T13:26:29;3.65;;;3.45;;
49784;SDS011;35679;38.732;-121.358;2024-03-08T13:29:22;3.90;;;3.50;;
49784;SDS011;35679;38.732;-121.358;2024-03-08T13:32:11;3.70;;;3.50;;
49784;SDS011;35679;38.732;-121.358;2024-03-08T13:35:01;3.75;;;3.45;;
49784;SDS011;35679;38.732;-121.358;2024-03-08T13:37:51;3.63;;;3.40;;
49784;SDS011;35679;38.732;-121.358;2024-03-08T13:40:40;3.53;;;3.33;;
49784;SDS011;35679;38.732;-121.358;2024-03-08T13:43:30;3.53;;;3.33;;
49784;SDS011;35679;38.732;-121.358;2024-03-08T13:46:22;3.40;;;3.20;;
49784;SDS011;35679;38.732;-121.358;2024-03-08T13:49:12;3.90;;;3.60;;
49784;SDS011;35679;38.732;-121.358;2024-03-08T13:52:02;3.15;;;2.95;;
49784;SDS011;35679;38.732;-121.358;2024-03-08T13:54:52;3.25;;;3.05;;
49784;SDS011;35679;38.732;-121.358;2024-03-08T13:57:42;3.30;;;3.10;;
49784;SDS011;35679;38.732;-121.358;2024-03-08T14:00:33;3.92;;;3.50;;
49784;SDS011;35679;38.732;-121.358;2024-03-08T14:03:23;3.28;;;3.13;;
49784;SDS011;35679;38.732;-121.358;2024-03-08T14:06:12;3.75;;;3.55;;
49784;SDS011;35679;38.732;-121.358;2024-03-08T14:09:10;3.38;;;3.17;;
49784;SDS011;35679;38.732;-121.358;2024-03-08T14:12:08;3.53;;;3.30;;
49784;SDS011;35679;38.732;-121.358;2024-03-08T14:14:58;3.30;;;3.20;;
49784;SDS011;35679;38.732;-121.358;2024-03-08T14:17:54;3.72;;;3.53;;
49784;SDS011;35679;38.732;-121.358;2024-03-08T14:20:44;5.07;;;4.85;;
49784;SDS011;35679;38.732;-121.358;2024-03-08T14:23:33;4.35;;;4.15;;
49784;SDS011;35679;38.732;-121.358;2024-03-08T14:26:23;8.00;;;7.50;;
49784;SDS011;35679;38.732;-121.358;2024-03-08T14:29:12;9.18;;;8.77;;
49784;SDS011;35679;38.732;-121.358;2024-03-08T14:32:02;5.50;;;5.18;;
49784;SDS011;35679;38.732;-121.358;2024-03-08T14:34:54;4.20;;;4.00;;
49784;SDS011;35679;38.732;-121.358;2024-03-08T14:37:44;4.10;;;3.90;;
49784;SDS011;35679;38.732;-121.358;2024-03-08T14:40:33;5.30;;;5.00;;
49784;SDS011;35679;38.732;-121.358;2024-03-08T14:43:24;5.25;;;4.95;;
49784;SDS011;35679;38.732;-121.358;2024-03-08T14:46:15;5.20;;;5.00;;
49784;SDS011;35679;38.732;-121.358;2024-03-08T14:49:09;5.10;;;4.90;;
49784;SDS011;35679;38.732;-121.358;2024-03-08T14:51:58;8.90;;;8.50;;
49784;SDS011;35679;38.732;-121.358;2024-03-08T14:54:48;13.10;;;12.48;;
49784;SDS011;35679;38.732;-121.358;2024-03-08T14:57:37;15.10;;;14.40;;
49784;SDS011;35679;38.732;-121.358;2024-03-08T15:00:28;7.00;;;6.70;;
49784;SDS011;35679;38.732;-121.358;2024-03-08T15:03:23;6.45;;;6.20;;
49784;SDS011;35679;38.732;-121.358;2024-03-08T15:06:15;11.02;;;10.52;;
49784;SDS011;35679;38.732;-121.358;2024-03-08T15:09:08;11.02;;;10.50;;
49784;SDS011;35679;38.732;-121.358;2024-03-08T15:12:06;11.50;;;11.00;;
49784;SDS011;35679;38.732;-121.358;2024-03-08T15:14:56;12.43;;;11.82;;
49784;SDS011;35679;38.732;-121.358;2024-03-08T15:17:45;12.18;;;11.60;;
49784;SDS011;35679;38.732;-121.358;2024-03-08T15:20:35;5.25;;;4.95;;
49784;SDS011;35679;38.732;-121.358;2024-03-08T15:23:24;6.43;;;6.13;;
49784;SDS011;35679;38.732;-121.358;2024-03-08T15:26:14;4.78;;;4.47;;
49784;SDS011;35679;38.732;-121.358;2024-03-08T15:29:05;3.53;;;3.30;;
49784;SDS011;35679;38.732;-121.358;2024-03-08T15:31:54;3.50;;;3.30;;
49784;SDS011;35679;38.732;-121.358;2024-03-08T15:34:44;8.75;;;8.35;;
49784;SDS011;35679;38.732;-121.358;2024-03-08T15:37:33;3.85;;;3.75;;
49784;SDS011;35679;38.732;-121.358;2024-03-08T15:40:23;3.72;;;3.53;;
49784;SDS011;35679;38.732;-121.358;2024-03-08T15:43:13;4.03;;;3.83;;
49784;SDS011;35679;38.732;-121.358;2024-03-08T15:46:04;4.35;;;4.15;;
49784;SDS011;35679;38.732;-121.358;2024-03-08T15:48:55;4.40;;;4.20;;
49784;SDS011;35679;38.732;-121.358;2024-03-08T15:51:46;4.40;;;4.20;;
49784;SDS011;35679;38.732;-121.358;2024-03-08T15:54:37;4.50;;;4.30;;
49784;SDS011;35679;38.732;-121.358;2024-03-08T15:57:28;4.70;;;4.30;;
49784;SDS011;35679;38.732;-121.358;2024-03-08T16:00:18;4.75;;;4.45;;
49784;SDS011;35679;38.732;-121.358;2024-03-08T16:03:34;3.42;;;3.30;;
49784;SDS011;35679;38.732;-121.358;2024-03-08T16:06:24;3.60;;;3.40;;
49784;SDS011;35679;38.732;-121.358;2024-03-08T16:09:13;3.40;;;3.20;;
49784;SDS011;35679;38.732;-121.358;2024-03-08T16:12:03;3.42;;;3.33;;
49784;SDS011;35679;38.732;-121.358;2024-03-08T16:14:53;3.78;;;3.58;;
49784;SDS011;35679;38.732;-121.358;2024-03-08T16:17:43;3.85;;;3.65;;
49784;SDS011;35679;38.732;-121.358;2024-03-08T16:20:32;3.25;;;3.15;;
49784;SDS011;35679;38.732;-121.358;2024-03-08T16:23:22;3.65;;;3.45;;
49784;SDS011;35679;38.732;-121.358;2024-03-08T16:26:13;3.75;;;3.45;;
49784;SDS011;35679;38.732;-121.358;2024-03-08T16:29:02;3.85;;;3.70;;
49784;SDS011;35679;38.732;-121.358;2024-03-08T16:31:54;3.67;;;3.50;;